createdAt,value
2023-01-23T00:00:19.199Z,26.92
2023-01-23T00:02:47.925Z,32.03
2023-01-23T00:05:16.517Z,27.77
2023-01-23T00:07:46.267Z,28.15
2023-01-23T00:10:15.006Z,30.33
2023-01-23T00:12:43.757Z,29.75
2023-01-23T00:15:14.018Z,31.67
2023-01-23T00:17:42.574Z,30.55
2023-01-23T00:20:13.130Z,30.90
2023-01-23T00:25:11.457Z,31.65
2023-01-23T00:27:39.906Z,25.45
2023-01-23T00:30:10.762Z,32.73
2023-01-23T00:32:39.198Z,29.00
2023-01-23T00:35:08.470Z,28.02
2023-01-23T00:37:36.807Z,26.60
2023-01-23T00:40:06.616Z,23.73
2023-01-23T00:42:36.404Z,27.42
2023-01-23T00:45:05.590Z,28.40
2023-01-23T00:47:34.076Z,29.30
2023-01-23T00:50:02.444Z,30.30
2023-01-23T00:52:30.768Z,27.00
2023-01-23T00:54:59.122Z,29.50
2023-01-23T00:57:27.402Z,30.57
2023-01-23T00:59:57.117Z,31.47
2023-01-23T01:02:25.683Z,27.63
2023-01-23T01:04:54.682Z,25.55
2023-01-23T01:07:23.711Z,28.00
2023-01-23T01:09:52.297Z,27.48
2023-01-23T01:12:20.735Z,32.13
2023-01-23T01:14:49.248Z,30.23
2023-01-23T01:17:19.036Z,29.03
2023-01-23T01:19:49.572Z,31.30
2023-01-23T01:22:17.943Z,30.15
2023-01-23T01:24:46.553Z,28.73
2023-01-23T01:27:14.920Z,28.35
2023-01-23T01:29:43.331Z,26.38
2023-01-23T01:32:11.834Z,29.45
2023-01-23T01:34:41.587Z,28.00
2023-01-23T01:39:39.466Z,25.33
2023-01-23T01:42:07.956Z,33.07
2023-01-23T01:44:56.006Z,26.80
2023-01-23T01:47:24.562Z,30.13
2023-01-23T01:49:58.785Z,28.10
2023-01-23T01:52:27.793Z,28.67
2023-01-23T01:54:59.979Z,23.97
2023-01-23T01:57:33.690Z,28.55
2023-01-23T02:00:09.038Z,26.77
2023-01-23T02:02:49.542Z,33.33
2023-01-23T02:05:22.788Z,26.00
2023-01-23T02:07:55.954Z,28.23
2023-01-23T02:10:25.562Z,28.70
2023-01-23T02:12:56.419Z,29.87
2023-01-23T02:15:25.014Z,30.48
2023-01-23T02:17:55.835Z,29.98
2023-01-23T02:20:29.406Z,26.50
2023-01-23T02:23:08.830Z,26.63
2023-01-23T02:25:54.535Z,29.70
2023-01-23T02:28:23.299Z,27.73
2023-01-23T02:30:52.133Z,28.53
2023-01-23T02:33:48.376Z,32.87
2023-01-23T02:36:18.358Z,27.42
2023-01-23T02:39:01.393Z,29.10
2023-01-23T02:41:35.656Z,35.47
2023-01-23T02:44:09.349Z,32.73
2023-01-23T02:46:39.206Z,28.58
2023-01-23T02:49:07.663Z,29.98
2023-01-23T02:51:36.469Z,31.13
2023-01-23T02:54:05.612Z,32.60
2023-01-23T02:56:36.047Z,32.00
2023-01-23T02:59:21.829Z,31.88
2023-01-23T03:01:51.543Z,32.47
2023-01-23T03:04:21.015Z,31.98
2023-01-23T03:06:49.366Z,34.05
2023-01-23T03:09:18.819Z,37.17
2023-01-23T03:11:48.840Z,33.92
2023-01-23T03:14:21.713Z,32.65
2023-01-23T03:16:52.743Z,30.70
2023-01-23T03:19:25.235Z,35.03
2023-01-23T03:21:54.695Z,38.00
2023-01-23T03:24:23.823Z,34.08
2023-01-23T03:26:53.734Z,39.13
2023-01-23T03:29:44.573Z,39.37
2023-01-23T03:32:16.536Z,34.43
2023-01-23T03:34:46.389Z,35.57
2023-01-23T03:37:17.533Z,37.70
2023-01-23T03:40:05.624Z,39.83
2023-01-23T03:42:37.291Z,40.87
2023-01-23T03:45:09.056Z,36.97
2023-01-23T03:47:38.074Z,38.97
2023-01-23T03:50:10.134Z,42.28
2023-01-23T03:52:40.800Z,40.00
2023-01-23T03:55:10.885Z,40.13
2023-01-23T03:57:41.583Z,42.30
2023-01-23T04:00:13.729Z,46.00
2023-01-23T04:02:42.433Z,36.03
2023-01-23T04:05:13.960Z,39.23
2023-01-23T04:07:42.503Z,36.53
2023-01-23T04:10:13.246Z,39.23
2023-01-23T04:12:45.524Z,37.67
2023-01-23T04:15:14.808Z,38.57
2023-01-23T04:17:43.394Z,37.90
2023-01-23T04:20:13.457Z,37.70
2023-01-23T04:22:44.283Z,38.37
2023-01-23T04:25:15.214Z,36.90
2023-01-23T04:27:45.167Z,35.80
2023-01-23T04:30:14.931Z,35.35
2023-01-23T04:32:46.435Z,35.90
2023-01-23T04:35:16.804Z,40.20
2023-01-23T04:37:45.784Z,34.73
2023-01-23T04:40:15.163Z,33.13
2023-01-23T04:42:55.674Z,34.80
2023-01-23T04:45:34.430Z,37.40
2023-01-23T04:48:22.694Z,35.07
2023-01-23T04:50:52.160Z,35.03
2023-01-23T04:53:23.851Z,37.60
2023-01-23T04:55:59.353Z,36.17
2023-01-23T04:58:30.724Z,34.17
2023-01-23T05:01:08.323Z,33.87
2023-01-23T05:03:37.740Z,34.13
2023-01-23T05:06:06.913Z,34.63
2023-01-23T05:08:35.436Z,37.93
2023-01-23T05:11:19.841Z,35.90
2023-01-23T05:13:50.311Z,51.53
2023-01-23T05:16:19.792Z,34.83
2023-01-23T05:19:06.863Z,39.70
2023-01-23T05:21:36.051Z,35.53
2023-01-23T05:24:04.771Z,37.25
2023-01-23T05:26:35.108Z,35.80
2023-01-23T05:29:05.203Z,34.17
2023-01-23T05:31:37.306Z,37.47
2023-01-23T05:34:41.063Z,38.27
2023-01-23T05:37:18.613Z,36.00
2023-01-23T05:39:51.333Z,36.28
2023-01-23T05:42:23.047Z,36.88
2023-01-23T05:44:52.906Z,33.23
2023-01-23T05:47:30.241Z,34.10
2023-01-23T05:50:01.189Z,37.73
2023-01-23T05:52:33.900Z,37.50
2023-01-23T05:55:02.640Z,38.50
2023-01-23T05:57:31.283Z,36.30
2023-01-23T06:00:36.365Z,39.40
2023-01-23T06:03:25.637Z,40.70
2023-01-23T06:06:08.866Z,38.00
2023-01-23T06:08:37.350Z,38.90
2023-01-23T06:11:06.228Z,41.88
2023-01-23T06:13:34.729Z,42.70
2023-01-23T06:16:05.293Z,39.70
2023-01-23T06:18:33.949Z,39.20
2023-01-23T06:21:03.167Z,38.70
2023-01-23T06:23:32.392Z,49.08
2023-01-23T06:26:02.962Z,42.42
2023-01-23T06:28:32.699Z,42.83
2023-01-23T06:31:07.268Z,43.20
2023-01-23T06:33:45.100Z,43.20
2023-01-23T06:36:14.297Z,46.10
2023-01-23T06:38:42.859Z,46.17
2023-01-23T06:41:13.906Z,45.57
2023-01-23T06:43:49.966Z,41.83
2023-01-23T06:46:24.877Z,44.27
2023-01-23T06:48:55.111Z,44.17
2023-01-23T06:51:23.862Z,40.60
2023-01-23T06:53:52.799Z,48.03
2023-01-23T06:56:23.899Z,43.40
2023-01-23T06:58:54.134Z,41.88
2023-01-23T07:01:29.683Z,43.70
2023-01-23T07:04:17.110Z,42.35
2023-01-23T07:06:46.536Z,47.00
2023-01-23T07:09:17.567Z,43.00
2023-01-23T07:11:52.688Z,39.35
2023-01-23T07:14:23.900Z,38.47
2023-01-23T07:16:55.722Z,39.10
2023-01-23T07:19:24.175Z,44.80
2023-01-23T07:21:52.811Z,43.38
2023-01-23T07:24:21.418Z,40.27
2023-01-23T07:26:49.844Z,40.13
2023-01-23T07:29:20.357Z,38.90
2023-01-23T07:34:18.628Z,32.95
2023-01-23T07:36:47.123Z,36.90
2023-01-23T07:39:16.157Z,43.25
2023-01-23T07:41:46.394Z,41.10
2023-01-23T07:44:18.827Z,36.75
2023-01-23T07:46:48.274Z,40.33
2023-01-23T07:49:19.330Z,41.87
2023-01-23T07:51:47.799Z,36.67
2023-01-23T07:54:16.400Z,43.97
2023-01-23T07:56:44.940Z,40.33
2023-01-23T07:59:13.980Z,43.17
2023-01-23T08:01:42.676Z,41.20
2023-01-23T08:04:11.193Z,36.63
2023-01-23T08:06:41.083Z,41.28
2023-01-23T08:09:09.881Z,38.60
2023-01-23T08:11:38.299Z,42.80
2023-01-23T08:14:07.178Z,39.53
2023-01-23T08:16:36.032Z,37.45
2023-01-23T08:19:09.240Z,42.50
2023-01-23T08:21:37.710Z,36.38
2023-01-23T08:24:08.738Z,39.63
2023-01-23T08:26:37.313Z,37.47
2023-01-23T08:29:06.190Z,39.53
2023-01-23T08:31:36.058Z,35.40
2023-01-23T08:34:05.277Z,39.08
2023-01-23T08:36:34.005Z,39.30
2023-01-23T08:39:02.557Z,36.75
2023-01-23T08:41:32.429Z,39.20
2023-01-23T08:44:01.863Z,40.08
2023-01-23T08:46:30.699Z,38.70
2023-01-23T08:49:05.413Z,39.80
2023-01-23T08:51:34.425Z,40.45
2023-01-23T08:54:02.825Z,40.58
2023-01-23T08:56:32.650Z,39.10
2023-01-23T08:59:01.210Z,42.63
2023-01-23T09:01:29.733Z,35.28
2023-01-23T09:03:58.847Z,38.60
2023-01-23T09:06:27.405Z,40.00
2023-01-23T09:08:55.925Z,40.45
2023-01-23T09:11:24.391Z,40.17
2023-01-23T09:13:54.329Z,38.03
2023-01-23T09:16:22.833Z,42.00
2023-01-23T09:18:51.321Z,41.92
2023-01-23T09:21:19.841Z,37.92
2023-01-23T09:23:48.414Z,38.35
2023-01-23T09:26:19.556Z,34.72
2023-01-23T09:28:48.322Z,33.90
2023-01-23T09:31:19.343Z,35.38
2023-01-23T09:33:49.847Z,35.28
2023-01-23T09:36:33.654Z,37.58
2023-01-23T09:39:09.401Z,34.55
2023-01-23T09:41:39.795Z,35.25
2023-01-23T09:44:16.934Z,31.30
2023-01-23T09:46:50.907Z,35.40
2023-01-23T09:49:27.021Z,37.75
2023-01-23T09:52:01.267Z,37.70
2023-01-23T09:54:46.639Z,37.88
2023-01-23T09:57:18.577Z,34.63
2023-01-23T10:00:00.794Z,37.25
2023-01-23T10:02:31.026Z,35.20
2023-01-23T10:05:02.987Z,35.28
2023-01-23T10:07:55.769Z,35.63
2023-01-23T10:10:49.706Z,33.63
2023-01-23T10:13:36.885Z,37.15
2023-01-23T10:16:50.499Z,36.42
2023-01-23T10:19:45.371Z,35.15
2023-01-23T10:22:34.526Z,36.90
2023-01-23T10:25:11.701Z,39.53
2023-01-23T10:27:44.101Z,36.55
2023-01-23T10:30:28.308Z,34.50
2023-01-23T10:33:02.560Z,46.78
2023-01-23T10:35:42.027Z,36.80
2023-01-23T10:38:29.147Z,39.30
2023-01-23T10:41:17.808Z,38.42
2023-01-23T10:43:49.048Z,38.35
2023-01-23T10:46:20.247Z,39.83
2023-01-23T10:48:51.027Z,37.30
2023-01-23T10:54:31.380Z,37.92
2023-01-23T10:57:02.886Z,39.10
2023-01-23T10:59:36.509Z,35.08
2023-01-23T11:02:22.103Z,37.65
2023-01-23T11:04:52.881Z,31.27
2023-01-23T11:09:56.299Z,32.65
2023-01-23T11:12:26.921Z,31.75
2023-01-23T11:17:44.615Z,30.02
2023-01-23T11:20:25.676Z,29.90
2023-01-23T11:23:08.517Z,32.38
2023-01-23T11:25:39.901Z,30.63
2023-01-23T11:28:24.838Z,35.00
2023-01-23T11:31:12.244Z,31.95
2023-01-23T11:33:47.837Z,30.42
2023-01-23T11:36:39.666Z,27.83
2023-01-23T11:39:20.338Z,32.03
2023-01-23T11:44:21.129Z,32.25
2023-01-23T11:47:29.612Z,30.52
2023-01-23T11:50:17.152Z,31.17
2023-01-23T11:52:59.254Z,31.48
2023-01-23T11:55:46.892Z,27.60
2023-01-23T11:58:50.825Z,27.67
2023-01-23T12:01:25.184Z,25.35
2023-01-23T12:04:22.944Z,26.50
2023-01-23T12:07:17.695Z,26.95
2023-01-23T12:10:02.070Z,24.83
2023-01-23T12:13:00.140Z,26.45
2023-01-23T12:15:35.811Z,24.60
2023-01-23T12:18:17.269Z,26.88
2023-01-23T12:20:55.452Z,28.98
2023-01-23T12:23:40.164Z,26.60
2023-01-23T12:26:15.751Z,25.77
2023-01-23T12:29:15.678Z,23.02
2023-01-23T12:32:01.788Z,24.90
2023-01-23T12:34:52.200Z,24.65
2023-01-23T12:37:43.426Z,22.70
2023-01-23T12:40:17.095Z,25.83
2023-01-23T12:42:53.986Z,24.70
2023-01-23T12:45:26.261Z,25.00
2023-01-23T12:48:04.955Z,28.85
2023-01-23T12:50:43.669Z,23.42
2023-01-23T12:53:15.856Z,25.65
2023-01-23T12:55:57.222Z,27.00
2023-01-23T12:58:29.695Z,26.80
2023-01-23T13:01:14.262Z,27.38
2023-01-23T13:04:05.390Z,25.00
2023-01-23T13:07:31.516Z,26.60
2023-01-23T13:10:59.289Z,27.08
2023-01-23T13:13:28.878Z,27.05
2023-01-23T13:16:13.396Z,24.92
2023-01-23T13:19:15.103Z,25.75
2023-01-23T13:22:06.671Z,25.70
2023-01-23T13:25:03.024Z,25.15
2023-01-23T13:27:51.331Z,20.17
2023-01-23T13:31:04.798Z,24.10
2023-01-23T13:33:58.818Z,22.98
2023-01-23T13:36:35.931Z,25.58
2023-01-23T13:39:28.004Z,22.88
2023-01-23T13:42:45.782Z,23.52
2023-01-23T13:45:29.800Z,22.60
2023-01-23T14:21:55.100Z,19.73
2023-01-23T14:24:26.426Z,21.10
2023-01-23T14:27:07.480Z,20.08
2023-01-23T14:29:36.259Z,20.95
2023-01-23T14:32:05.136Z,18.88
2023-01-23T14:34:40.968Z,20.48
2023-01-23T14:37:13.715Z,20.67
2023-01-23T14:39:53.096Z,21.13
2023-01-23T14:42:29.482Z,21.17
2023-01-23T14:45:01.925Z,20.30
2023-01-23T14:47:35.298Z,22.38
2023-01-23T14:50:05.324Z,19.67
2023-01-23T14:52:35.166Z,20.83
2023-01-23T14:55:08.028Z,21.88
2023-01-23T14:57:37.834Z,17.27
2023-01-23T15:00:08.889Z,17.05
2023-01-23T15:02:37.812Z,16.10
2023-01-23T15:05:16.734Z,18.08
2023-01-23T15:07:49.384Z,18.67
2023-01-23T15:10:20.833Z,18.27
2023-01-23T15:12:56.068Z,16.48
2023-01-23T15:15:26.610Z,19.17
2023-01-23T15:20:38.404Z,18.88
2023-01-23T15:23:31.544Z,20.25
2023-01-23T15:26:34.523Z,19.77
2023-01-23T15:29:06.046Z,21.48
2023-01-23T15:31:36.813Z,20.27
2023-01-23T15:34:28.039Z,22.90
2023-01-23T15:37:01.228Z,22.48
2023-01-23T15:39:34.236Z,23.15
2023-01-23T15:42:05.789Z,24.15
2023-01-23T15:44:34.558Z,23.33
2023-01-23T15:47:04.356Z,24.48
2023-01-23T15:49:36.110Z,24.85
2023-01-23T15:52:21.436Z,29.42
2023-01-23T15:54:53.477Z,30.85
2023-01-23T15:57:21.937Z,26.77
2023-01-23T15:59:50.381Z,28.98
2023-01-23T16:02:30.639Z,26.48
2023-01-23T16:05:01.163Z,30.80
2023-01-23T16:07:35.010Z,30.77
2023-01-23T16:10:18.025Z,24.90
2023-01-23T16:12:50.654Z,23.95
2023-01-23T16:15:21.690Z,23.77
2023-01-23T16:17:50.982Z,26.13
2023-01-23T16:20:23.374Z,27.98
2023-01-23T16:22:54.575Z,28.83
2023-01-23T16:25:43.148Z,28.10
2023-01-23T16:28:14.528Z,25.05
2023-01-23T16:30:43.475Z,24.33
2023-01-23T16:33:12.140Z,22.17
2023-01-23T16:35:41.281Z,22.85
2023-01-23T16:38:21.458Z,22.25
2023-01-23T16:40:53.343Z,21.58
2023-01-23T16:43:22.547Z,21.65
2023-01-23T16:45:53.692Z,23.10
2023-01-23T16:48:28.283Z,24.10
2023-01-23T16:51:01.986Z,26.42
2023-01-23T16:53:32.874Z,22.50
2023-01-23T16:56:04.636Z,23.52
2023-01-23T16:58:40.144Z,23.45
2023-01-23T17:01:15.106Z,22.92
2023-01-23T17:03:43.848Z,23.60
2023-01-23T17:06:15.595Z,22.63
2023-01-23T17:08:44.569Z,23.30
2023-01-23T17:11:22.843Z,32.80
2023-01-23T17:13:58.680Z,20.75
2023-01-23T17:16:28.264Z,46.40
2023-01-23T17:19:01.156Z,25.38
2023-01-23T17:21:34.035Z,25.77
2023-01-23T17:24:02.831Z,20.80
2023-01-23T17:26:32.739Z,22.95
2023-01-23T17:29:01.179Z,20.77
2023-01-23T17:31:32.694Z,24.65
2023-01-23T17:34:03.104Z,22.25
2023-01-23T17:36:31.602Z,26.08
2023-01-23T17:39:01.173Z,20.38
2023-01-23T17:41:31.571Z,20.95
2023-01-23T17:44:02.105Z,21.48
2023-01-23T17:46:34.206Z,20.58
2023-01-23T17:49:02.758Z,20.13
2023-01-23T17:51:32.775Z,20.20
2023-01-23T17:54:01.219Z,21.13
2023-01-23T17:56:29.623Z,22.58
2023-01-23T17:58:58.096Z,21.23
2023-01-23T18:01:28.331Z,19.90
2023-01-23T18:03:56.754Z,20.10
2023-01-23T18:06:25.144Z,20.55
2023-01-23T18:08:53.819Z,20.95
2023-01-23T18:11:24.772Z,20.15
2023-01-23T18:14:26.205Z,19.83
2023-01-23T18:16:57.000Z,19.58
2023-01-23T18:21:58.184Z,20.63
2023-01-23T18:24:30.586Z,21.10
2023-01-23T18:27:01.744Z,20.48
2023-01-23T18:29:44.484Z,21.70
2023-01-23T18:32:50.020Z,20.25
2023-01-23T18:35:30.517Z,20.75
2023-01-23T18:38:09.161Z,17.88
2023-01-23T18:40:45.314Z,20.58
2023-01-23T18:43:32.719Z,22.42
2023-01-23T18:46:02.215Z,20.40
2023-01-23T18:48:32.847Z,21.95
2023-01-23T18:53:48.017Z,22.98
2023-01-23T18:56:29.865Z,23.88
2023-01-23T18:59:12.993Z,23.92
2023-01-23T19:01:53.483Z,24.15
2023-01-23T19:04:34.448Z,24.42
2023-01-23T19:07:04.210Z,23.05
2023-01-23T19:09:36.215Z,22.57
2023-01-23T19:12:25.782Z,25.15
2023-01-23T19:15:10.113Z,24.67
2023-01-23T19:17:47.452Z,24.35
2023-01-23T19:20:30.222Z,24.23
2023-01-23T19:23:22.612Z,25.50
2023-01-23T19:25:51.435Z,24.90
2023-01-23T19:28:24.176Z,27.10
2023-01-23T19:30:53.465Z,29.17
2023-01-23T19:33:23.422Z,26.52
2023-01-23T19:35:56.872Z,27.50
2023-01-23T19:38:26.663Z,29.15
2023-01-23T19:40:56.965Z,27.55
2023-01-23T19:43:27.302Z,24.15
2023-01-23T19:45:56.540Z,23.15
2023-01-23T19:48:25.095Z,25.20
2023-01-23T19:50:54.939Z,23.65
2023-01-23T19:53:24.275Z,26.90
2023-01-23T19:55:52.882Z,28.10
2023-01-23T19:58:21.474Z,27.63
2023-01-23T20:00:50.294Z,28.33
2023-01-23T20:03:18.674Z,26.08
2023-01-23T20:05:47.095Z,27.40
2023-01-23T20:08:17.329Z,28.55
2023-01-23T20:10:45.793Z,31.33
2023-01-23T20:13:15.158Z,28.85
2023-01-23T20:15:44.040Z,34.08
2023-01-23T20:18:12.923Z,34.97
2023-01-23T20:20:41.360Z,33.33
2023-01-23T20:23:10.125Z,35.78
2023-01-23T20:25:40.014Z,34.10
2023-01-23T20:28:08.550Z,35.75
2023-01-23T20:30:37.118Z,33.10
2023-01-23T20:33:08.343Z,34.53
2023-01-23T20:35:39.784Z,34.50
2023-01-23T20:38:08.257Z,36.75
2023-01-23T20:40:36.692Z,36.63
2023-01-23T20:43:06.617Z,36.08
2023-01-23T20:45:35.076Z,37.10
2023-01-23T20:48:03.490Z,39.10
2023-01-23T20:50:32.240Z,41.63
2023-01-23T20:53:19.273Z,37.22
2023-01-23T20:55:53.970Z,38.23
2023-01-23T20:58:41.543Z,38.85
2023-01-23T21:01:10.562Z,40.58
2023-01-23T21:03:40.322Z,36.75
2023-01-23T21:06:09.869Z,39.10
2023-01-23T21:08:38.777Z,37.33
2023-01-23T21:11:08.825Z,38.25
2023-01-23T21:13:38.937Z,39.22
2023-01-23T21:16:12.057Z,40.78
2023-01-23T21:18:44.694Z,40.42
2023-01-23T21:21:16.178Z,41.42
2023-01-23T21:23:46.920Z,39.85
2023-01-23T21:26:16.015Z,44.45
2023-01-23T21:28:47.983Z,43.47
2023-01-23T21:31:23.178Z,41.80
2023-01-23T21:33:52.342Z,43.22
2023-01-23T21:36:24.476Z,40.95
2023-01-23T21:38:54.122Z,44.13
2023-01-23T21:41:23.165Z,44.17
2023-01-23T21:43:53.001Z,42.10
2023-01-23T21:46:24.929Z,39.95
2023-01-23T21:48:53.379Z,40.17
2023-01-23T21:51:27.797Z,43.92
2023-01-23T21:53:56.495Z,39.67
2023-01-23T21:56:25.840Z,38.00
2023-01-23T21:58:56.084Z,42.35
2023-01-23T22:01:42.599Z,40.20
2023-01-23T22:04:13.556Z,40.10
2023-01-23T22:06:44.294Z,42.65
2023-01-23T22:09:17.385Z,43.17
2023-01-23T22:11:46.319Z,37.38
2023-01-23T22:14:16.462Z,42.95
2023-01-23T22:16:50.331Z,45.17
2023-01-23T22:19:24.516Z,43.10
2023-01-23T22:21:54.176Z,45.67
2023-01-23T22:24:22.720Z,44.38
2023-01-23T22:26:51.460Z,43.20
2023-01-23T22:29:23.168Z,39.53
2023-01-23T22:31:52.382Z,38.95
2023-01-23T22:34:21.124Z,42.40
2023-01-23T22:36:49.603Z,40.20
2023-01-23T22:39:19.697Z,40.13
2023-01-23T22:41:50.246Z,39.92
2023-01-23T22:46:51.772Z,37.63
2023-01-23T22:49:22.319Z,41.15
2023-01-23T22:51:51.504Z,41.67
2023-01-23T22:54:19.941Z,39.53
2023-01-23T22:56:48.417Z,39.97
2023-01-23T22:59:16.962Z,39.67
2023-01-23T23:01:46.749Z,37.53
2023-01-23T23:04:15.192Z,43.72
2023-01-23T23:06:43.787Z,39.47
2023-01-23T23:09:12.272Z,40.28
2023-01-23T23:11:40.867Z,41.28
2023-01-23T23:14:12.120Z,39.72
2023-01-23T23:16:41.012Z,39.50
2023-01-23T23:19:13.441Z,40.15
2023-01-23T23:21:42.148Z,43.95
2023-01-23T23:24:14.193Z,38.40
2023-01-23T23:26:42.701Z,41.78
2023-01-23T23:29:11.090Z,42.80
2023-01-23T23:31:39.599Z,40.40
2023-01-23T23:34:12.338Z,42.77
2023-01-23T23:36:41.089Z,42.73
2023-01-23T23:39:09.554Z,40.47
2023-01-23T23:41:37.931Z,40.92
2023-01-23T23:44:06.769Z,40.67
2023-01-23T23:46:35.224Z,40.38
2023-01-23T23:49:03.846Z,39.03
2023-01-23T23:51:33.643Z,41.42
2023-01-23T23:54:02.042Z,38.13
2023-01-23T23:56:32.141Z,42.23
2023-01-23T23:59:00.737Z,43.78
